Time;durP1;ratioP1;P1;durP2;ratioP2;P2;SDS_P1;SDS_P2;PMS_P1;PMS_P2;Temp;Humidity;BMP_temperature;BMP_pressure;BME280_temperature;BME280_humidity;BME280_pressure;Samples;Min_cycle;Max_cycle;Signal;HPM_P1;HPM_P2
2022/08/07 00:00:29;;;;;;;11.18;8.18;;;;;;;;;;4847428;29;20054;-82
2022/08/07 00:02:58;;;;;;;9.57;7.32;;;;;;;;;;4816492;29;20041;-81
2022/08/07 00:05:25;;;;;;;11.75;8.02;;;;;;;;;;4840283;29;20072;-83
2022/08/07 00:07:52;;;;;;;12.88;8.27;;;;;;;;;;4841469;29;20042;-81
2022/08/07 00:10:18;;;;;;;10.20;8.07;;;;;;;;;;4837389;29;20054;-82
2022/08/07 00:12:44;;;;;;;10.63;8.30;;;;;;;;;;4843875;29;20088;-83
2022/08/07 00:15:10;;;;;;;10.27;7.68;;;;;;;;;;4843882;29;20113;-83
2022/08/07 00:17:36;;;;;;;17.13;9.43;;;;;;;;;;4830148;29;20046;-79
2022/08/07 00:20:04;;;;;;;10.10;8.38;;;;;;;;;;4847815;29;20058;-82
2022/08/07 00:22:30;;;;;;;10.48;8.82;;;;;;;;;;4839189;29;20511;-82
2022/08/07 00:25:04;;;;;;;11.30;8.63;;;;;;;;;;4826283;29;20045;-80
2022/08/07 00:27:36;;;;;;;14.98;9.38;;;;;;;;;;4846688;29;20056;-81
2022/08/07 00:30:09;;;;;;;15.10;8.90;;;;;;;;;;4843334;29;20058;-81
2022/08/07 00:32:41;;;;;;;14.70;8.90;;;;;;;;;;4827696;29;20395;-81
2022/08/07 00:35:07;;;;;;;11.77;9.05;;;;;;;;;;4827815;29;20073;-80
2022/08/07 00:37:33;;;;;;;11.25;8.75;;;;;;;;;;4827198;29;20049;-82
2022/08/07 00:40:06;;;;;;;13.90;10.68;;;;;;;;;;4826836;29;20530;-82
2022/08/07 00:42:36;;;;;;;12.32;9.07;;;;;;;;;;4838621;29;20483;-82
2022/08/07 00:45:02;;;;;;;10.45;8.63;;;;;;;;;;4844206;29;20041;-83
2022/08/07 00:47:28;;;;;;;12.23;9.73;;;;;;;;;;4844931;29;20629;-80
2022/08/07 00:49:54;;;;;;;10.57;8.43;;;;;;;;;;4840195;29;20515;-81
2022/08/07 00:52:39;;;;;;;13.85;8.77;;;;;;;;;;4844451;29;20042;-81
2022/08/07 00:55:08;;;;;;;12.18;8.88;;;;;;;;;;4850913;29;20049;-81
2022/08/07 00:57:34;;;;;;;12.77;8.75;;;;;;;;;;4849518;29;20473;-83
2022/08/07 01:00:01;;;;;;;11.15;7.18;;;;;;;;;;4849692;29;20045;-81
2022/08/07 01:02:28;;;;;;;20.05;8.13;;;;;;;;;;4844901;29;20105;-84
2022/08/07 01:04:56;;;;;;;12.35;7.70;;;;;;;;;;4839156;29;20046;-80
2022/08/07 01:07:23;;;;;;;8.90;7.10;;;;;;;;;;4838996;29;20045;-81
2022/08/07 01:09:49;;;;;;;8.20;6.93;;;;;;;;;;4828149;29;20077;-82
2022/08/07 01:12:15;;;;;;;11.82;7.40;;;;;;;;;;4843253;29;20503;-78
2022/08/07 01:14:42;;;;;;;10.23;7.65;;;;;;;;;;4843899;29;20788;-81
2022/08/07 01:17:08;;;;;;;8.57;7.38;;;;;;;;;;4843860;29;20117;-81
2022/08/07 01:19:35;;;;;;;9.98;7.35;;;;;;;;;;4844955;29;20052;-81
2022/08/07 01:22:01;;;;;;;8.68;7.30;;;;;;;;;;4842458;29;20046;-81
2022/08/07 01:24:28;;;;;;;7.63;6.50;;;;;;;;;;4844993;29;20114;-81
2022/08/07 01:26:54;;;;;;;13.50;7.85;;;;;;;;;;4844928;29;20041;-80
2022/08/07 01:29:24;;;;;;;8.50;6.53;;;;;;;;;;4852998;29;20071;-81
2022/08/07 01:31:51;;;;;;;10.07;6.88;;;;;;;;;;4817926;29;20103;-80
2022/08/07 01:34:17;;;;;;;7.70;6.93;;;;;;;;;;4842279;29;20479;-81
2022/08/07 01:36:44;;;;;;;11.68;7.47;;;;;;;;;;4823760;29;20081;-80
2022/08/07 01:39:10;;;;;;;10.88;8.15;;;;;;;;;;4837120;29;20061;-81
2022/08/07 01:41:38;;;;;;;9.48;7.38;;;;;;;;;;4826776;29;20186;-81
2022/08/07 01:44:04;;;;;;;9.65;6.80;;;;;;;;;;4844154;29;20069;-81
2022/08/07 01:46:30;;;;;;;6.95;6.25;;;;;;;;;;4857030;29;20124;-82
2022/08/07 01:48:56;;;;;;;8.15;6.70;;;;;;;;;;4838326;29;20080;-80
2022/08/07 01:51:23;;;;;;;12.63;8.30;;;;;;;;;;4842629;29;20102;-81
2022/08/07 01:53:55;;;;;;;10.13;8.30;;;;;;;;;;4842258;29;20061;-82
2022/08/07 01:56:40;;;;;;;14.70;8.65;;;;;;;;;;4831181;29;20050;-81
2022/08/07 01:59:26;;;;;;;10.50;9.00;;;;;;;;;;4841740;29;20049;-82
2022/08/07 02:02:01;;;;;;;13.90;9.50;;;;;;;;;;4842675;29;20054;-81
2022/08/07 02:04:33;;;;;;;11.05;9.50;;;;;;;;;;4843640;29;20046;-84
2022/08/07 02:07:01;;;;;;;11.52;9.88;;;;;;;;;;4843597;29;20083;-83
2022/08/07 02:09:36;;;;;;;11.38;9.13;;;;;;;;;;4828749;29;20045;-81
2022/08/07 02:12:15;;;;;;;14.55;9.27;;;;;;;;;;4841653;29;20056;-82
2022/08/07 02:14:44;;;;;;;16.50;9.48;;;;;;;;;;4841865;29;20062;-81
2022/08/07 02:17:21;;;;;;;10.35;9.23;;;;;;;;;;4827121;29;20034;-81
2022/08/07 02:19:48;;;;;;;15.38;9.65;;;;;;;;;;4812068;29;20050;-81
2022/08/07 02:22:18;;;;;;;13.10;9.90;;;;;;;;;;4826401;29;20062;-81
2022/08/07 02:24:51;;;;;;;11.98;10.10;;;;;;;;;;4825475;29;20491;-81
2022/08/07 02:27:25;;;;;;;17.20;9.82;;;;;;;;;;4827649;29;20427;-81
2022/08/07 02:30:04;;;;;;;18.48;10.48;;;;;;;;;;4807413;29;20049;-82
2022/08/07 02:32:34;;;;;;;15.73;9.90;;;;;;;;;;4827375;29;20110;-81
2022/08/07 02:35:06;;;;;;;14.38;9.80;;;;;;;;;;4842642;29;20074;-80
2022/08/07 02:37:41;;;;;;;10.70;9.50;;;;;;;;;;4841970;29;20048;-80
2022/08/07 02:40:08;;;;;;;11.80;9.07;;;;;;;;;;4833320;29;20053;-80
2022/08/07 02:42:35;;;;;;;11.27;9.65;;;;;;;;;;4841951;29;20594;-80
2022/08/07 02:45:05;;;;;;;11.63;9.40;;;;;;;;;;4819575;29;20427;-79
2022/08/07 02:47:31;;;;;;;12.48;9.18;;;;;;;;;;4825536;29;20078;-81
2022/08/07 02:49:58;;;;;;;13.50;9.70;;;;;;;;;;4841113;29;20050;-81
2022/08/07 02:52:32;;;;;;;13.68;8.75;;;;;;;;;;4843744;29;20057;-81
2022/08/07 02:55:00;;;;;;;11.15;8.27;;;;;;;;;;4840459;29;20052;-79
2022/08/07 02:57:35;;;;;;;14.60;9.52;;;;;;;;;;4824745;29;20097;-80
2022/08/07 03:00:06;;;;;;;11.43;8.90;;;;;;;;;;4839409;29;20113;-80
2022/08/07 03:02:33;;;;;;;11.27;9.38;;;;;;;;;;4836744;29;20126;-81
2022/08/07 03:05:00;;;;;;;13.73;9.38;;;;;;;;;;4846933;29;20456;-81
2022/08/07 03:07:36;;;;;;;13.55;10.13;;;;;;;;;;4845486;29;20085;-80
2022/08/07 03:10:02;;;;;;;13.32;8.70;;;;;;;;;;4829712;29;20125;-81
2022/08/07 03:12:29;;;;;;;11.85;9.23;;;;;;;;;;4833535;29;20050;-81
2022/08/07 03:14:57;;;;;;;14.63;10.18;;;;;;;;;;4804164;29;20387;-79
2022/08/07 03:17:23;;;;;;;11.50;8.90;;;;;;;;;;4803292;29;20082;-80
2022/08/07 03:19:53;;;;;;;12.90;9.30;;;;;;;;;;4812735;29;20046;-79
2022/08/07 03:22:23;;;;;;;14.07;9.55;;;;;;;;;;4803360;29;20142;-80
2022/08/07 03:24:49;;;;;;;13.60;9.15;;;;;;;;;;4805144;29;20043;-81
2022/08/07 03:27:15;;;;;;;14.15;9.15;;;;;;;;;;4804999;29;20046;-81
2022/08/07 03:29:47;;;;;;;11.52;9.15;;;;;;;;;;4805218;29;20057;-81
2022/08/07 03:32:15;;;;;;;14.13;9.82;;;;;;;;;;4804690;29;20038;-82
2022/08/07 03:34:43;;;;;;;14.95;9.30;;;;;;;;;;4798738;29;20083;-79
2022/08/07 03:37:10;;;;;;;14.30;9.75;;;;;;;;;;4807339;29;20035;-82
2022/08/07 03:39:36;;;;;;;16.83;9.93;;;;;;;;;;4806304;29;20066;-81
2022/08/07 03:42:03;;;;;;;13.48;10.10;;;;;;;;;;4805209;29;20055;-81
2022/08/07 03:44:33;;;;;;;15.10;10.68;;;;;;;;;;4805397;29;20100;-81
2022/08/07 03:47:00;;;;;;;17.08;10.30;;;;;;;;;;4804417;29;20100;-83
2022/08/07 03:49:26;;;;;;;11.32;9.50;;;;;;;;;;4803703;29;20054;-80
2022/08/07 03:51:52;;;;;;;13.07;10.07;;;;;;;;;;4803003;29;20058;-80
2022/08/07 03:54:18;;;;;;;13.50;10.02;;;;;;;;;;4803941;29;21169;-81
2022/08/07 03:56:45;;;;;;;13.30;10.23;;;;;;;;;;4805474;29;20050;-80
2022/08/07 03:59:13;;;;;;;12.88;9.75;;;;;;;;;;4808788;29;20043;-85
2022/08/07 04:01:43;;;;;;;13.02;9.60;;;;;;;;;;4814966;29;20059;-83
2022/08/07 04:04:09;;;;;;;16.33;9.05;;;;;;;;;;4816040;29;20051;-82
2022/08/07 04:06:40;;;;;;;14.35;9.30;;;;;;;;;;4813231;29;20095;-81
2022/08/07 04:09:06;;;;;;;15.40;10.25;;;;;;;;;;4809151;29;20066;-81
2022/08/07 04:11:33;;;;;;;12.60;9.52;;;;;;;;;;4808163;29;20051;-81
2022/08/07 04:14:00;;;;;;;14.38;10.15;;;;;;;;;;4801680;29;20051;-81
2022/08/07 04:16:27;;;;;;;13.82;9.65;;;;;;;;;;4800461;29;20061;-81
2022/08/07 04:18:53;;;;;;;14.18;9.80;;;;;;;;;;4801739;29;20035;-80
2022/08/07 04:21:19;;;;;;;16.58;9.40;;;;;;;;;;4801837;29;20085;-81
2022/08/07 04:23:45;;;;;;;14.07;10.13;;;;;;;;;;4814786;29;20039;-81
2022/08/07 04:26:12;;;;;;;13.57;10.20;;;;;;;;;;4803118;29;20172;-80
2022/08/07 04:28:39;;;;;;;14.63;10.70;;;;;;;;;;4803809;29;20054;-82
2022/08/07 04:31:05;;;;;;;16.00;10.40;;;;;;;;;;4803964;29;20034;-80
2022/08/07 04:33:32;;;;;;;15.00;10.50;;;;;;;;;;4781159;29;20046;-81
2022/08/07 04:35:58;;;;;;;15.93;10.57;;;;;;;;;;4798989;29;20039;-81
2022/08/07 04:38:25;;;;;;;12.45;10.18;;;;;;;;;;4801847;29;20043;-82
2022/08/07 04:40:51;;;;;;;15.38;9.93;;;;;;;;;;4812338;29;20055;-81
2022/08/07 04:43:20;;;;;;;13.02;9.88;;;;;;;;;;4796756;29;20174;-83
2022/08/07 04:46:01;;;;;;;12.57;9.77;;;;;;;;;;4810772;29;20076;-82
2022/08/07 04:48:34;;;;;;;11.27;8.52;;;;;;;;;;4802776;29;20050;-80
2022/08/07 04:51:21;;;;;;;11.30;7.93;;;;;;;;;;4802461;29;20084;-82
2022/08/07 04:54:05;;;;;;;14.57;9.00;;;;;;;;;;4808129;29;20308;-79
2022/08/07 04:57:01;;;;;;;12.68;9.05;;;;;;;;;;4806615;29;20042;-79
2022/08/07 04:59:31;;;;;;;11.85;9.07;;;;;;;;;;4808217;29;20055;-81
2022/08/07 05:01:57;;;;;;;12.23;7.93;;;;;;;;;;4800515;29;20236;-83
2022/08/07 05:04:26;;;;;;;12.98;8.70;;;;;;;;;;4811659;29;20059;-82
2022/08/07 05:07:15;;;;;;;10.93;8.63;;;;;;;;;;4804234;29;20051;-82
2022/08/07 05:10:02;;;;;;;14.63;9.10;;;;;;;;;;4805205;29;20042;-81
2022/08/07 05:12:31;;;;;;;12.98;8.30;;;;;;;;;;4806340;29;20354;-81
2022/08/07 05:15:14;;;;;;;13.48;8.77;;;;;;;;;;4805079;29;20055;-82
2022/08/07 05:17:41;;;;;;;15.30;8.57;;;;;;;;;;4800613;29;20115;-80
2022/08/07 05:20:08;;;;;;;11.63;8.88;;;;;;;;;;4804538;29;20057;-81
2022/08/07 05:22:35;;;;;;;11.55;8.43;;;;;;;;;;4802683;29;20042;-79
2022/08/07 05:25:01;;;;;;;9.50;8.23;;;;;;;;;;4804225;29;20046;-80
2022/08/07 05:27:28;;;;;;;12.45;8.10;;;;;;;;;;4804069;29;20074;-80
2022/08/07 05:29:55;;;;;;;12.77;8.55;;;;;;;;;;4807608;29;20039;-84
2022/08/07 05:32:25;;;;;;;12.10;9.15;;;;;;;;;;4807679;29;20066;-81
2022/08/07 05:34:58;;;;;;;11.55;8.93;;;;;;;;;;4806609;29;20047;-82
2022/08/07 05:37:24;;;;;;;11.07;8.55;;;;;;;;;;4804028;29;20487;-80
2022/08/07 05:39:55;;;;;;;13.35;9.15;;;;;;;;;;4799233;29;20075;-81
2022/08/07 05:42:21;;;;;;;11.48;9.02;;;;;;;;;;4801014;29;20111;-81
2022/08/07 05:44:54;;;;;;;13.10;8.45;;;;;;;;;;4802327;29;20043;-81
2022/08/07 05:47:26;;;;;;;19.77;10.75;;;;;;;;;;4809033;29;20046;-81
2022/08/07 05:49:52;;;;;;;11.88;9.15;;;;;;;;;;4798991;29;20565;-82
2022/08/07 05:52:19;;;;;;;13.82;9.27;;;;;;;;;;4799495;29;20047;-81
2022/08/07 05:54:45;;;;;;;10.05;8.18;;;;;;;;;;4813879;29;20051;-80
2022/08/07 05:57:12;;;;;;;12.40;8.65;;;;;;;;;;4799005;29;20038;-80
2022/08/07 05:59:39;;;;;;;13.35;9.15;;;;;;;;;;4788772;29;20047;-81
2022/08/07 06:02:06;;;;;;;16.08;8.50;;;;;;;;;;4802052;29;20096;-81
2022/08/07 06:04:34;;;;;;;10.65;8.77;;;;;;;;;;4800460;29;20806;-80
2022/08/07 06:07:04;;;;;;;25.30;8.40;;;;;;;;;;4799937;29;20103;-83
2022/08/07 06:09:31;;;;;;;14.43;8.50;;;;;;;;;;4800998;29;20977;-80
2022/08/07 06:11:57;;;;;;;15.02;7.82;;;;;;;;;;4798600;29;20074;-80
2022/08/07 06:14:23;;;;;;;11.52;7.35;;;;;;;;;;4811500;29;20137;-81
2022/08/07 06:16:53;;;;;;;10.77;7.28;;;;;;;;;;4816496;29;20050;-80
2022/08/07 06:19:19;;;;;;;8.65;7.03;;;;;;;;;;4820783;29;20042;-81
2022/08/07 06:21:46;;;;;;;10.27;7.75;;;;;;;;;;4817170;29;20121;-80
2022/08/07 06:24:12;;;;;;;11.05;7.93;;;;;;;;;;4819368;29;20106;-79
2022/08/07 06:26:39;;;;;;;11.43;7.60;;;;;;;;;;4813043;29;20117;-80
2022/08/07 06:29:05;;;;;;;7.63;6.90;;;;;;;;;;4814527;29;20042;-81
2022/08/07 06:31:51;;;;;;;9.25;7.05;;;;;;;;;;4830393;29;20045;-80
2022/08/07 06:34:24;;;;;;;14.52;7.55;;;;;;;;;;4818763;29;20086;-80
2022/08/07 06:36:50;;;;;;;13.93;7.95;;;;;;;;;;4816380;29;20047;-81
2022/08/07 06:39:22;;;;;;;10.00;6.95;;;;;;;;;;4817225;29;20408;-81
2022/08/07 06:41:53;;;;;;;9.20;7.07;;;;;;;;;;4818707;29;20034;-80
2022/08/07 06:44:19;;;;;;;10.10;7.07;;;;;;;;;;4800880;29;20050;-82
2022/08/07 06:46:45;;;;;;;8.93;7.30;;;;;;;;;;4818381;29;20489;-81
2022/08/07 06:49:11;;;;;;;9.95;7.47;;;;;;;;;;4817632;29;20065;-81
2022/08/07 06:51:39;;;;;;;10.38;7.05;;;;;;;;;;4816504;29;20042;-80
2022/08/07 06:54:07;;;;;;;10.57;6.85;;;;;;;;;;4819873;29;20137;-83
2022/08/07 06:56:42;;;;;;;8.63;7.18;;;;;;;;;;4817850;29;20038;-81
2022/08/07 06:59:14;;;;;;;8.65;6.70;;;;;;;;;;4823201;29;20106;-81
2022/08/07 07:01:41;;;;;;;10.00;7.00;;;;;;;;;;4823709;29;20107;-81
2022/08/07 07:04:08;;;;;;;14.02;6.65;;;;;;;;;;4827686;29;20046;-81
2022/08/07 07:06:34;;;;;;;9.32;6.38;;;;;;;;;;4824561;29;20045;-82
2022/08/07 07:09:16;;;;;;;6.78;6.05;;;;;;;;;;4824625;29;20517;-81
2022/08/07 07:11:46;;;;;;;10.55;5.70;;;;;;;;;;4827909;29;20069;-82
2022/08/07 07:14:12;;;;;;;7.43;5.97;;;;;;;;;;4811768;29;20487;-79
2022/08/07 07:16:39;;;;;;;10.55;5.38;;;;;;;;;;4810159;29;20060;-81
2022/08/07 07:19:07;;;;;;;6.20;5.15;;;;;;;;;;4804821;29;20099;-82
2022/08/07 07:21:35;;;;;;;7.35;4.88;;;;;;;;;;4805794;29;20043;-80
2022/08/07 07:24:01;;;;;;;5.50;4.32;;;;;;;;;;4790420;29;20184;-82
2022/08/07 07:26:30;;;;;;;7.03;4.03;;;;;;;;;;4792291;29;20035;-81
2022/08/07 07:28:57;;;;;;;5.82;4.00;;;;;;;;;;4803747;29;20046;-80
2022/08/07 07:31:26;;;;;;;5.75;4.50;;;;;;;;;;4788844;29;20042;-82
2022/08/07 07:33:58;;;;;;;9.02;3.70;;;;;;;;;;4799986;29;20108;-79
2022/08/07 07:36:27;;;;;;;5.72;4.20;;;;;;;;;;4786038;29;20039;-83
2022/08/07 07:39:06;;;;;;;6.07;4.07;;;;;;;;;;4790808;29;20051;-82
2022/08/07 07:41:39;;;;;;;7.65;5.35;;;;;;;;;;4806956;29;20053;-82
2022/08/07 07:44:09;;;;;;;6.00;4.18;;;;;;;;;;4813462;29;20511;-82
2022/08/07 07:46:36;;;;;;;6.43;4.25;;;;;;;;;;4802837;29;20059;-83
2022/08/07 07:49:10;;;;;;;6.50;4.20;;;;;;;;;;4807545;29;20054;-82
2022/08/07 07:51:36;;;;;;;15.57;4.85;;;;;;;;;;4790066;29;20075;-83
2022/08/07 07:54:03;;;;;;;7.78;4.75;;;;;;;;;;4806076;29;20068;-81
2022/08/07 07:56:35;;;;;;;7.18;4.72;;;;;;;;;;4798166;29;20524;-82
2022/08/07 07:59:11;;;;;;;6.97;5.53;;;;;;;;;;4800566;29;20040;-83
2022/08/07 08:01:39;;;;;;;10.90;4.90;;;;;;;;;;4801724;29;20401;-82
2022/08/07 08:04:07;;;;;;;5.50;4.70;;;;;;;;;;4811118;29;20083;-81
2022/08/07 08:06:34;;;;;;;5.50;4.78;;;;;;;;;;4812362;29;20134;-85
2022/08/07 08:09:06;;;;;;;6.80;5.13;;;;;;;;;;4800576;29;20082;-81
2022/08/07 08:11:33;;;;;;;9.23;4.28;;;;;;;;;;4816775;29;20408;-82
2022/08/07 08:13:59;;;;;;;10.07;5.13;;;;;;;;;;4806022;29;20055;-80
2022/08/07 08:16:38;;;;;;;6.13;4.30;;;;;;;;;;4809401;29;20050;-83
2022/08/07 08:19:06;;;;;;;5.40;4.30;;;;;;;;;;4804393;29;20035;-80
2022/08/07 08:29:52;;;;;;;5.38;4.25;;;;;;;;;;4811070;29;20050;-81
2022/08/07 08:32:20;;;;;;;4.40;3.65;;;;;;;;;;4806483;29;20583;-81
2022/08/07 08:34:48;;;;;;;5.43;4.50;;;;;;;;;;4811317;29;20039;-86
2022/08/07 08:37:15;;;;;;;9.25;4.00;;;;;;;;;;4810535;29;20523;-87
2022/08/07 08:39:45;;;;;;;14.65;4.43;;;;;;;;;;4806686;29;20046;-80
2022/08/07 08:42:11;;;;;;;7.78;3.70;;;;;;;;;;4804328;29;20070;-83
2022/08/07 08:44:42;;;;;;;5.80;3.38;;;;;;;;;;4786939;29;20492;-85
2022/08/07 08:47:18;;;;;;;4.03;3.30;;;;;;;;;;4804096;29;20949;-83
2022/08/07 08:49:53;;;;;;;4.95;3.58;;;;;;;;;;4802780;29;20073;-86
2022/08/07 08:52:21;;;;;;;4.45;3.10;;;;;;;;;;4802621;29;20055;-83
2022/08/07 08:55:13;;;;;;;4.10;3.35;;;;;;;;;;4790559;29;20053;-81
2022/08/07 08:57:41;;;;;;;4.85;3.42;;;;;;;;;;4795399;29;20128;-82
2022/08/07 09:00:15;;;;;;;7.88;4.57;;;;;;;;;;4794047;29;20051;-82
2022/08/07 09:02:48;;;;;;;4.72;3.70;;;;;;;;;;4795338;29;20543;-84
2022/08/07 09:05:37;;;;;;;8.43;3.92;;;;;;;;;;4798559;29;20051;-82
2022/08/07 09:08:21;;;;;;;3.95;3.17;;;;;;;;;;4794387;29;20107;-80
2022/08/07 09:11:01;;;;;;;5.97;3.60;;;;;;;;;;4797265;29;20055;-83
2022/08/07 09:13:34;;;;;;;6.25;3.50;;;;;;;;;;4799174;29;20054;-81
2022/08/07 09:16:08;;;;;;;11.82;4.38;;;;;;;;;;4813253;29;20051;-82
2022/08/07 09:18:53;;;;;;;5.57;4.00;;;;;;;;;;4797037;29;20054;-84
2022/08/07 09:21:33;;;;;;;5.63;3.75;;;;;;;;;;4817051;29;20411;-84
2022/08/07 09:24:18;;;;;;;3.63;3.25;;;;;;;;;;4823046;29;20039;-85
2022/08/07 09:26:59;;;;;;;4.20;3.47;;;;;;;;;;4811536;29;20049;-85
2022/08/07 09:29:39;;;;;;;5.05;3.67;;;;;;;;;;4823107;29;20586;-84
2022/08/07 09:32:14;;;;;;;5.93;3.70;;;;;;;;;;4808326;29;20137;-86
2022/08/07 09:35:13;;;;;;;5.95;3.53;;;;;;;;;;4811607;29;20039;-84
2022/08/07 09:37:54;;;;;;;4.97;3.58;;;;;;;;;;4793323;29;20138;-86
2022/08/07 09:40:29;;;;;;;4.30;3.55;;;;;;;;;;4811767;29;20102;-85
2022/08/07 09:42:58;;;;;;;5.45;3.33;;;;;;;;;;4807167;29;20061;-84
2022/08/07 09:45:30;;;;;;;5.25;3.42;;;;;;;;;;4807198;29;20126;-82
2022/08/07 09:48:15;;;;;;;4.10;3.17;;;;;;;;;;4816896;29;20129;-84
2022/08/07 09:50:41;;;;;;;4.00;2.83;;;;;;;;;;4807037;29;20058;-86
2022/08/07 09:53:11;;;;;;;5.28;2.97;;;;;;;;;;4814799;29;20103;-87
2022/08/07 09:55:56;;;;;;;4.22;3.05;;;;;;;;;;4826666;29;20384;-85
2022/08/07 09:58:29;;;;;;;4.65;2.92;;;;;;;;;;4830002;29;20058;-83
2022/08/07 10:04:27;;;;;;;4.47;3.00;;;;;;;;;;4823275;29;20065;-86
2022/08/07 10:06:53;;;;;;;;;;;;;;;;;;4801308;29;20139;-86
2022/08/07 10:09:29;;;;;;;5.50;3.60;;;;;;;;;;4809721;29;19933;-83
2022/08/07 10:12:05;;;;;;;3.10;2.53;;;;;;;;;;4819627;29;20081;-86
2022/08/07 10:15:05;;;;;;;6.47;2.90;;;;;;;;;;4802100;29;20630;-86
2022/08/07 10:17:56;;;;;;;5.18;3.17;;;;;;;;;;4796814;29;20048;-86
2022/08/07 10:20:22;;;;;;;2.95;2.65;;;;;;;;;;4802898;29;20051;-83
2022/08/07 10:22:48;;;;;;;3.58;2.90;;;;;;;;;;4785980;29;20490;-85
2022/08/07 10:25:26;;;;;;;3.80;2.65;;;;;;;;;;4798843;29;20044;-85
2022/08/07 10:28:02;;;;;;;3.88;3.10;;;;;;;;;;4803935;29;20535;-85
2022/08/07 10:30:38;;;;;;;5.78;3.15;;;;;;;;;;4814515;29;20073;-83
2022/08/07 10:33:20;;;;;;;3.55;2.83;;;;;;;;;;4800388;29;20933;-84
2022/08/07 10:35:52;;;;;;;3.78;2.53;;;;;;;;;;4798156;29;20175;-84
2022/08/07 10:38:20;;;;;;;5.57;2.85;;;;;;;;;;4797525;29;20058;-85
2022/08/07 10:41:22;;;;;;;2.95;2.45;;;;;;;;;;4793411;29;20057;-84
2022/08/07 10:44:02;;;;;;;3.67;2.58;;;;;;;;;;4753097;30;20044;-85
2022/08/07 10:46:38;;;;;;;5.15;2.60;;;;;;;;;;4791538;29;20061;-82
2022/08/07 10:49:22;;;;;;;3.55;2.53;;;;;;;;;;4801232;29;20115;-87
2022/08/07 10:51:54;;;;;;;3.97;2.70;;;;;;;;;;4795679;29;20498;-84
2022/08/07 10:54:20;;;;;;;4.25;2.95;;;;;;;;;;4799050;29;20055;-84
2022/08/07 10:56:46;;;;;;;3.95;2.70;;;;;;;;;;4799988;29;20050;-84
2022/08/07 10:59:19;;;;;;;6.05;2.75;;;;;;;;;;4804844;29;20108;-83
2022/08/07 11:01:58;;;;;;;7.90;3.00;;;;;;;;;;4799064;29;20591;-85
2022/08/07 11:04:34;;;;;;;2.90;2.65;;;;;;;;;;4809094;29;20055;-86
2022/08/07 11:07:05;;;;;;;4.60;2.90;;;;;;;;;;4799042;29;20077;-85
2022/08/07 11:09:48;;;;;;;3.75;2.92;;;;;;;;;;4810814;29;20050;-85
2022/08/07 11:12:18;;;;;;;2.88;2.60;;;;;;;;;;4802658;29;20047;-85
2022/08/07 11:14:54;;;;;;;3.83;2.72;;;;;;;;;;4801655;29;20051;-85
2022/08/07 11:17:27;;;;;;;4.15;2.67;;;;;;;;;;4799274;29;20058;-85
2022/08/07 11:19:59;;;;;;;5.15;4.15;;;;;;;;;;4802420;29;20050;-83
2022/08/07 11:22:27;;;;;;;2.90;2.60;;;;;;;;;;4804027;29;20051;-83
2022/08/07 11:24:56;;;;;;;3.88;2.47;;;;;;;;;;4792308;29;20051;-86
2022/08/07 11:27:40;;;;;;;4.43;2.50;;;;;;;;;;4805102;29;20893;-86
2022/08/07 11:30:09;;;;;;;3.38;2.10;;;;;;;;;;4800413;29;20484;-85
2022/08/07 11:32:39;;;;;;;4.65;2.75;;;;;;;;;;4778363;29;20052;-83
2022/08/07 11:35:32;;;;;;;4.97;2.47;;;;;;;;;;4799001;29;20039;-86
2022/08/07 11:38:07;;;;;;;3.63;2.73;;;;;;;;;;4787864;29;20104;-81
2022/08/07 11:40:49;;;;;;;3.13;2.30;;;;;;;;;;4797609;29;20058;-86
2022/08/07 11:43:20;;;;;;;3.40;2.50;;;;;;;;;;4804919;29;20092;-83
2022/08/07 11:46:09;;;;;;;3.60;2.70;;;;;;;;;;4804983;29;20059;-85
2022/08/07 11:48:41;;;;;;;2.63;2.33;;;;;;;;;;4798390;29;20535;-84
2022/08/07 11:51:22;;;;;;;3.95;2.58;;;;;;;;;;4794892;29;20086;-87
2022/08/07 11:53:51;;;;;;;3.55;2.38;;;;;;;;;;4790579;29;20059;-86
2022/08/07 11:56:27;;;;;;;3.85;2.22;;;;;;;;;;4804121;29;20056;-85
2022/08/07 11:59:12;;;;;;;2.40;2.20;;;;;;;;;;4798501;29;20110;-83
2022/08/07 12:01:49;;;;;;;2.20;2.00;;;;;;;;;;4804885;29;20066;-86
2022/08/07 12:04:21;;;;;;;2.83;2.28;;;;;;;;;;4810213;29;20082;-86
2022/08/07 12:06:56;;;;;;;3.42;2.42;;;;;;;;;;4799493;29;20105;-86
2022/08/07 12:09:25;;;;;;;3.85;2.20;;;;;;;;;;4809865;29;20038;-83
2022/08/07 12:12:00;;;;;;;2.80;2.45;;;;;;;;;;4814184;29;20572;-85
2022/08/07 12:14:28;;;;;;;3.20;2.53;;;;;;;;;;4800014;29;20055;-84
2022/08/07 12:16:57;;;;;;;6.57;3.05;;;;;;;;;;4786606;29;20050;-83
2022/08/07 12:19:36;;;;;;;3.80;3.20;;;;;;;;;;4803714;29;20051;-84
2022/08/07 12:22:10;;;;;;;5.38;4.00;;;;;;;;;;4802712;29;20039;-85
2022/08/07 12:25:51;;;;;;;6.70;3.47;;;;;;;;;;4802030;29;20057;-84
2022/08/07 12:27:35;;;;;;;4.20;3.47;;;;;;;;;;4803851;29;20159;-84
2022/08/07 12:30:14;;;;;;;6.25;3.60;;;;;;;;;;4801404;29;20034;-85
2022/08/07 12:32:54;;;;;;;3.75;3.05;;;;;;;;;;4800766;29;20050;-87
2022/08/07 12:35:22;;;;;;;4.75;3.60;;;;;;;;;;4784818;29;20043;-81
2022/08/07 12:37:50;;;;;;;4.97;3.65;;;;;;;;;;4796547;29;20051;-81
2022/08/07 12:40:24;;;;;;;4.75;3.63;;;;;;;;;;4802103;29;20046;-84
2022/08/07 12:42:55;;;;;;;4.80;3.20;;;;;;;;;;4800881;29;20492;-83
2022/08/07 12:45:23;;;;;;;4.97;3.08;;;;;;;;;;4802955;29;20058;-84
2022/08/07 12:47:50;;;;;;;6.18;3.60;;;;;;;;;;4800549;29;20504;-82
2022/08/07 12:50:19;;;;;;;8.13;3.47;;;;;;;;;;4800661;29;20131;-84
2022/08/07 12:52:45;;;;;;;4.88;3.00;;;;;;;;;;4800318;29;20063;-83
2022/08/07 12:55:39;;;;;;;4.60;3.10;;;;;;;;;;4802991;29;20129;-81
2022/08/07 12:58:06;;;;;;;4.90;3.03;;;;;;;;;;4799734;29;20059;-84
2022/08/07 13:00:46;;;;;;;5.95;3.35;;;;;;;;;;4798855;29;20157;-82
2022/08/07 13:03:48;;;;;;;4.65;3.17;;;;;;;;;;4805484;29;20133;-82
2022/08/07 13:06:15;;;;;;;5.32;3.22;;;;;;;;;;4793794;29;20059;-84
2022/08/07 13:08:47;;;;;;;3.42;2.92;;;;;;;;;;4800268;29;20051;-81
2022/08/07 13:11:26;;;;;;;4.35;2.40;;;;;;;;;;4814383;29;20046;-83
2022/08/07 13:13:52;;;;;;;6.90;3.10;;;;;;;;;;4799816;29;20110;-84
2022/08/07 13:16:24;;;;;;;4.00;2.75;;;;;;;;;;4807443;29;20057;-84
2022/08/07 13:18:53;;;;;;;5.47;2.78;;;;;;;;;;4801226;29;20397;-85
2022/08/07 13:21:30;;;;;;;7.00;2.50;;;;;;;;;;4802729;29;20046;-84
2022/08/07 13:24:16;;;;;;;3.45;2.35;;;;;;;;;;4803038;29;20140;-84
2022/08/07 13:27:02;;;;;;;5.32;2.55;;;;;;;;;;4804448;29;20046;-84
2022/08/07 13:29:49;;;;;;;4.72;2.53;;;;;;;;;;4806864;29;20047;-83
2022/08/07 13:32:26;;;;;;;7.43;2.45;;;;;;;;;;4804605;29;20050;-85
2022/08/07 13:35:07;;;;;;;4.22;2.40;;;;;;;;;;4799431;29;20562;-85
2022/08/07 13:37:45;;;;;;;4.65;2.75;;;;;;;;;;4801657;29;20062;-86
2022/08/07 13:40:30;;;;;;;3.38;2.50;;;;;;;;;;4802839;29;20047;-86
2022/08/07 13:43:01;;;;;;;4.88;2.53;;;;;;;;;;4801410;29;20046;-86
2022/08/07 13:45:28;;;;;;;3.65;2.50;;;;;;;;;;4801917;29;20115;-84
2022/08/07 13:47:55;;;;;;;4.15;2.25;;;;;;;;;;4801345;29;20057;-82
2022/08/07 13:50:25;;;;;;;4.90;2.45;;;;;;;;;;4806140;29;20042;-86
2022/08/07 13:52:55;;;;;;;5.07;2.45;;;;;;;;;;4804787;29;20092;-87
2022/08/07 13:55:22;;;;;;;3.10;2.50;;;;;;;;;;4802376;29;20445;-86
2022/08/07 14:00:58;;;;;;;4.72;2.53;;;;;;;;;;4802706;29;20065;-85
2022/08/07 14:03:31;;;;;;;4.80;2.65;;;;;;;;;;4800428;29;20038;-86
2022/08/07 14:05:59;;;;;;;3.28;2.25;;;;;;;;;;4802359;29;20089;-84
2022/08/07 14:08:36;;;;;;;4.15;2.45;;;;;;;;;;4801462;29;20049;-87
2022/08/07 14:11:10;;;;;;;3.05;2.20;;;;;;;;;;4804687;29;20051;-86
2022/08/07 14:13:39;;;;;;;5.22;2.13;;;;;;;;;;4801071;29;20051;-83
2022/08/07 14:16:15;;;;;;;3.30;1.92;;;;;;;;;;4803175;29;20055;-85
2022/08/07 14:18:46;;;;;;;3.50;2.00;;;;;;;;;;4804201;29;21397;-86
2022/08/07 14:21:20;;;;;;;2.70;1.75;;;;;;;;;;4797855;29;20083;-83
2022/08/07 14:24:07;;;;;;;4.63;1.73;;;;;;;;;;4803778;29;20084;-84
2022/08/07 14:27:13;;;;;;;4.45;1.80;;;;;;;;;;4801826;29;20046;-81
2022/08/07 14:29:56;;;;;;;2.72;1.75;;;;;;;;;;4812680;29;20050;-87
2022/08/07 14:32:28;;;;;;;5.93;1.80;;;;;;;;;;4803901;29;20051;-85
2022/08/07 14:35:00;;;;;;;2.55;1.75;;;;;;;;;;4808433;29;20057;-80
2022/08/07 14:38:03;;;;;;;2.35;1.50;;;;;;;;;;4799632;29;20047;-84
2022/08/07 14:43:59;;;;;;;3.60;1.20;;;;;;;;;;4823970;24;20064;-86
2022/08/07 14:46:25;;;;;;;4.50;1.58;;;;;;;;;;4801844;29;20035;-85
2022/08/07 14:49:07;;;;;;;2.63;1.52;;;;;;;;;;4816902;29;20396;-83
2022/08/07 14:51:33;;;;;;;2.40;1.48;;;;;;;;;;4819265;29;20054;-85
2022/08/07 14:54:01;;;;;;;3.42;1.38;;;;;;;;;;4821168;29;20072;-86
2022/08/07 14:56:31;;;;;;;3.60;1.20;;;;;;;;;;4827906;29;20178;-87
2022/08/07 14:59:05;;;;;;;5.03;1.17;;;;;;;;;;4830312;29;20057;-82
2022/08/07 15:01:33;;;;;;;6.90;1.13;;;;;;;;;;4833816;29;20038;-86
2022/08/07 15:04:08;;;;;;;2.33;1.48;;;;;;;;;;4829185;29;20068;-85
2022/08/07 15:06:59;;;;;;;4.53;1.77;;;;;;;;;;4821156;29;20052;-89
2022/08/07 15:09:27;;;;;;;5.70;1.55;;;;;;;;;;4802001;29;21327;-86
2022/08/07 15:12:03;;;;;;;;;;;;;;;;;;4819252;29;20058;-84
2022/08/07 15:14:30;;;;;;;2.28;1.63;;;;;;;;;;4819655;29;19939;-88
2022/08/07 15:16:58;;;;;;;4.50;2.00;;;;;;;;;;4829600;29;20111;-84
2022/08/07 15:19:27;;;;;;;4.15;2.08;;;;;;;;;;4820928;29;20084;-88
2022/08/07 15:22:06;;;;;;;6.10;2.35;;;;;;;;;;4825774;29;20118;-86
2022/08/07 15:24:37;;;;;;;8.85;2.30;;;;;;;;;;4838379;29;20181;-87